CheckWX is a tool to help pilots better visualize weather data.  It is not intended as a substitute for an official pre-flight weather briefing.

04:05:43 UTC

KBCK METAR
Black River Falls Area Airport
Black River Falls, Wisconsin, USA
Current

11 mins ago

KBCK 260355Z AUTO 00000KT 10SM CLR 10/08 A2997 RMK AO2 T01000082
Observed
May-26 @ 03:55 UTC
Visibility
10 SM
Flight Rules
VFR
Cloud Levels
  • Clear skies
Temperature
10°C / 50°F
Dewpoint
C / 46°F
Humidity
88%
Altimeter
29.97" Hg
Pressure
1014.92 hPa
Previous

31 mins ago

KBCK 260335Z AUTO 00000KT 10SM CLR 12/08 A2997 RMK AO2 T01210082
Observed
May-26 @ 03:35 UTC
Visibility
10 SM
Flight Rules
VFR
Cloud Levels
  • Clear skies
Temperature
12°C / 54°F
Dewpoint
C / 46°F
Humidity
77%
Altimeter
29.97" Hg
Pressure
1014.92 hPa
Previous

51 mins ago

KBCK 260315Z AUTO 34003KT 10SM CLR 15/09 A2996 RMK AO2 T01500085
Observed
May-26 @ 03:15 UTC
Wind
  • 340° at 3 KTS
Visibility
10 SM
Flight Rules
VFR
Cloud Levels
  • Clear skies
Temperature
15°C / 59°F
Dewpoint
C / 48°F
Humidity
68%
Altimeter
29.96" Hg
Pressure
1014.52 hPa